createdAt,value
2022-09-12T00:02:11.789Z,101280.78
2022-09-12T00:04:38.147Z,101275.75
2022-09-12T00:07:04.454Z,101272.03
2022-09-12T00:09:30.825Z,101282.25
2022-09-12T00:11:57.135Z,101276.47
2022-09-12T00:14:23.455Z,101272.84
2022-09-12T00:16:49.799Z,101270.72
2022-09-12T00:19:16.174Z,101267.81
2022-09-12T00:21:42.568Z,101270.72
2022-09-12T00:24:09.245Z,101270.72
2022-09-12T00:26:35.545Z,101269.25
2022-09-12T00:29:01.900Z,101279.38
2022-09-12T00:31:28.283Z,101275.00
2022-09-12T00:33:55.371Z,101282.16
2022-09-12T00:36:22.514Z,101272.84
2022-09-12T00:38:48.918Z,101278.63
2022-09-12T00:41:19.501Z,101274.25
2022-09-12T00:43:46.728Z,101275.00
2022-09-12T00:46:17.805Z,101275.75
2022-09-12T00:48:46.038Z,101274.25
2022-09-12T00:51:12.450Z,101272.13
2022-09-12T00:53:39.153Z,101270.63
2022-09-12T00:56:05.471Z,101274.91
2022-09-12T00:58:32.855Z,101275.66
2022-09-12T01:00:59.300Z,101272.03
2022-09-12T01:03:25.668Z,101279.28
2022-09-12T01:05:59.827Z,101270.63
2022-09-12T01:08:26.133Z,101277.81
2022-09-12T01:10:52.453Z,101270.63
2022-09-12T01:13:18.794Z,101279.28
2022-09-12T01:15:45.806Z,101272.03
2022-09-12T01:18:14.887Z,101267.00
2022-09-12T01:20:51.643Z,101266.25
2022-09-12T01:23:23.985Z,101266.25
2022-09-12T01:26:09.149Z,101264.75
2022-09-12T01:28:58.888Z,101261.22
2022-09-12T01:31:28.249Z,101263.38
2022-09-12T01:34:10.337Z,101260.50
2022-09-12T01:36:38.260Z,101264.75
2022-09-12T01:39:16.452Z,101255.47
2022-09-12T01:42:01.506Z,101258.25
2022-09-12T01:44:34.781Z,101253.22
2022-09-12T01:47:02.999Z,101264.75
2022-09-12T01:49:33.105Z,101258.88
2022-09-12T01:52:12.750Z,101261.78
2022-09-12T01:54:40.871Z,101256.00
2022-09-12T01:57:09.729Z,101257.41
2022-09-12T01:59:37.077Z,101255.28
2022-09-12T02:02:06.220Z,101261.78
2022-09-12T02:04:41.234Z,101258.16
2022-09-12T02:07:14.620Z,101255.28
2022-09-12T02:09:42.977Z,101254.53
2022-09-12T02:12:09.613Z,101257.41
2022-09-12T02:14:40.458Z,101253.06
2022-09-12T02:17:08.706Z,101258.06
2022-09-12T02:19:36.608Z,101258.81
2022-09-12T02:22:03.049Z,101263.84
2022-09-12T02:24:33.332Z,101252.28
2022-09-12T02:27:10.625Z,101265.88
2022-09-12T02:29:36.933Z,101257.22
2022-09-12T02:32:08.640Z,101258.72
2022-09-12T02:34:42.389Z,101262.91
2022-09-12T02:37:17.491Z,101258.63
2022-09-12T02:39:45.544Z,101260.84
2022-09-12T02:42:11.993Z,101255.03
2022-09-12T02:44:38.307Z,101259.38
2022-09-12T02:47:09.104Z,101259.38
2022-09-12T02:49:35.629Z,101268.69
2022-09-12T02:52:01.938Z,101264.41
2022-09-12T02:54:28.263Z,101259.94
2022-09-12T02:56:54.570Z,101263.66
2022-09-12T02:59:21.196Z,101255.66
2022-09-12T03:01:57.367Z,101257.03
2022-09-12T03:04:37.526Z,101261.44
2022-09-12T03:07:12.477Z,101259.19
2022-09-12T03:09:42.609Z,101259.94
2022-09-12T03:12:17.965Z,101254.91
2022-09-12T03:14:47.418Z,101259.19
2022-09-12T03:17:32.380Z,101255.53
2022-09-12T03:20:03.620Z,101256.94
2022-09-12T03:22:51.317Z,101259.19
2022-09-12T03:25:18.769Z,101249.88
2022-09-12T03:27:47.695Z,101254.91
2022-09-12T03:30:14.093Z,101254.25
2022-09-12T03:32:41.079Z,101249.88
2022-09-12T03:35:07.563Z,101251.19
2022-09-12T03:37:33.884Z,101251.09
2022-09-12T03:40:00.985Z,101249.69
2022-09-12T03:42:27.328Z,101255.44
2022-09-12T03:44:53.641Z,101261.22
2022-09-12T03:47:19.955Z,101261.22
2022-09-12T03:49:46.697Z,101266.25
2022-09-12T03:52:12.998Z,101264.00
2022-09-12T03:54:39.713Z,101277.78
2022-09-12T03:57:06.038Z,101269.78
2022-09-12T03:59:32.521Z,101276.50
2022-09-12T04:01:58.865Z,101268.38
2022-09-12T04:04:25.214Z,101267.72
2022-09-12T04:06:51.530Z,101265.03
2022-09-12T04:09:17.852Z,101261.94
2022-09-12T04:11:44.212Z,101262.31
2022-09-12T04:14:10.543Z,101271.81
2022-09-12T04:16:36.869Z,101266.44
2022-09-12T04:19:03.239Z,101266.59
2022-09-12T04:21:29.540Z,101265.13
2022-09-12T04:23:55.861Z,101265.31
2022-09-12T04:26:22.360Z,101265.31
2022-09-12T04:28:48.682Z,101276.13
2022-09-12T04:31:18.074Z,101273.97
2022-09-12T04:33:44.684Z,101268.19
2022-09-12T04:36:11.765Z,101265.31
2022-09-12T04:38:38.411Z,101262.44
2022-09-12T04:41:14.473Z,101262.44
2022-09-12T04:43:40.801Z,101266.06
2022-09-12T04:46:07.522Z,101271.09
2022-09-12T04:48:33.897Z,101272.47
2022-09-12T04:51:09.380Z,101271.09
2022-09-12T04:53:36.919Z,101275.00
2022-09-12T04:56:04.025Z,101275.19
2022-09-12T04:58:30.932Z,101277.22
2022-09-12T05:00:57.335Z,101282.44
2022-09-12T05:03:23.665Z,101273.13
2022-09-12T05:05:53.338Z,101263.81
2022-09-12T05:08:22.614Z,101264.56
2022-09-12T05:10:49.013Z,101270.91
2022-09-12T05:13:15.320Z,101270.78
2022-09-12T05:15:41.631Z,101274.41
2022-09-12T05:18:07.954Z,101269.22
2022-09-12T05:20:34.291Z,101265.13
2022-09-12T05:23:01.682Z,101262.34
2022-09-12T05:25:28.002Z,101266.69
2022-09-12T05:27:54.319Z,101266.69
2022-09-12T05:30:20.629Z,101278.13
2022-09-12T05:32:46.941Z,101275.34
2022-09-12T05:35:13.266Z,101277.50
2022-09-12T05:37:40.081Z,101285.22
2022-09-12T05:40:08.483Z,101286.88
2022-09-12T05:42:34.877Z,101287.19
2022-09-12T05:45:01.186Z,101284.44
2022-09-12T05:47:27.517Z,101291.47
2022-09-12T05:49:54.278Z,101291.09
2022-09-12T05:52:20.646Z,101289.03
2022-09-12T05:54:48.161Z,101290.81
2022-09-12T05:57:14.469Z,101294.97
2022-09-12T05:59:40.820Z,101297.31
2022-09-12T06:02:08.233Z,101298.97
2022-09-12T06:04:34.581Z,101301.22
2022-09-12T06:07:01.057Z,101298.41
2022-09-12T06:09:28.029Z,101307.75
2022-09-12T06:11:54.395Z,101312.13
2022-09-12T06:14:20.750Z,101306.63
2022-09-12T06:16:47.548Z,101313.41
2022-09-12T06:19:15.126Z,101317.13
2022-09-12T06:21:41.487Z,101316.66
2022-09-12T06:24:07.797Z,101319.78
2022-09-12T06:26:34.115Z,101321.44
2022-09-12T06:29:00.749Z,101318.81
2022-09-12T06:31:28.762Z,101317.91
2022-09-12T06:33:55.109Z,101317.31
2022-09-12T06:36:22.452Z,101325.56
2022-09-12T06:38:48.833Z,101317.91
2022-09-12T06:41:15.162Z,101321.44
2022-09-12T06:43:41.542Z,101322.91
2022-09-12T06:46:08.315Z,101318.81
2022-09-12T06:48:37.371Z,101321.38
2022-09-12T06:51:09.167Z,101314.50
2022-09-12T06:53:36.903Z,101316.06
2022-09-12T06:56:09.570Z,101315.91
2022-09-12T06:58:35.929Z,101310.25
2022-09-12T07:01:06.244Z,101300.47
2022-09-12T07:03:32.602Z,101310.69
2022-09-12T07:06:08.773Z,101307.25
2022-09-12T07:08:35.881Z,101303.09
2022-09-12T07:11:08.248Z,101308.03
2022-09-12T07:13:34.698Z,101302.34
2022-09-12T07:16:04.190Z,101304.09
2022-09-12T07:18:31.226Z,101302.78
2022-09-12T07:20:59.682Z,101307.97
2022-09-12T07:23:25.998Z,101308.69
2022-09-12T07:25:53.158Z,101313.53
2022-09-12T07:28:19.483Z,101311.94
2022-09-12T07:30:45.835Z,101316.34
2022-09-12T07:33:12.188Z,101310.72
2022-09-12T07:35:38.510Z,101311.31
2022-09-12T07:38:04.914Z,101307.00
2022-09-12T07:40:31.241Z,101301.25
2022-09-12T07:42:57.587Z,101307.00
2022-09-12T07:45:23.923Z,101316.53
2022-09-12T07:47:53.121Z,101313.53
2022-09-12T07:50:19.459Z,101309.25
2022-09-12T07:52:45.985Z,101310.56
2022-09-12T07:55:12.346Z,101317.16
2022-09-12T07:57:38.657Z,101315.75
2022-09-12T08:00:05.593Z,101323.03
2022-09-12T08:02:38.724Z,101313.63
2022-09-12T08:05:05.222Z,101319.41
2022-09-12T08:07:31.537Z,101315.75
2022-09-12T08:09:57.858Z,101317.25
2022-09-12T08:12:24.187Z,101319.28
2022-09-12T08:14:50.520Z,101323.44
2022-09-12T08:17:16.862Z,101315.75
2022-09-12T08:19:43.635Z,101324.09
2022-09-12T08:22:09.966Z,101332.25
2022-09-12T08:24:36.296Z,101323.78
2022-09-12T08:27:02.608Z,101330.38
2022-09-12T08:29:28.991Z,101326.31
2022-09-12T08:31:57.414Z,101317.97
2022-09-12T08:34:24.837Z,101316.47
2022-09-12T08:36:51.187Z,101324.28
2022-09-12T08:39:17.511Z,101314.75
2022-09-12T08:41:44.746Z,101317.31
2022-09-12T08:44:19.806Z,101322.00
2022-09-12T08:46:52.926Z,101320.34
2022-09-12T08:49:23.388Z,101317.97
2022-09-12T08:51:49.702Z,101316.28
2022-09-12T08:54:20.029Z,101314.84
2022-09-12T08:56:46.345Z,101314.34
2022-09-12T08:59:13.643Z,101316.22
2022-09-12T09:01:43.856Z,101313.69
2022-09-12T09:04:10.145Z,101318.63
2022-09-12T09:06:54.196Z,101312.84
2022-09-12T09:09:24.921Z,101309.78
2022-09-12T09:12:03.648Z,101309.47
2022-09-12T09:14:49.072Z,101311.88
2022-09-12T09:17:25.170Z,101314.69
2022-09-12T09:19:53.750Z,101306.19
2022-09-12T09:22:32.282Z,101306.84
2022-09-12T09:25:02.571Z,101300.31
2022-09-12T09:27:41.631Z,101310.56
2022-09-12T09:30:12.455Z,101307.63
2022-09-12T09:32:38.792Z,101304.00
2022-09-12T09:35:36.522Z,101300.25
2022-09-12T09:38:19.037Z,101297.84
2022-09-12T09:40:51.410Z,101299.00
2022-09-12T09:43:22.847Z,101296.66
2022-09-12T09:45:49.639Z,101292.13
2022-09-12T09:48:28.890Z,101292.91
2022-09-12T09:50:56.789Z,101295.69
2022-09-12T09:53:42.418Z,101290.00
2022-09-12T09:56:26.392Z,101290.25
2022-09-12T09:58:52.709Z,101285.78
2022-09-12T10:01:19.121Z,101284.13
2022-09-12T10:03:49.976Z,101287.03
2022-09-12T10:06:23.010Z,101283.09
2022-09-12T10:08:49.523Z,101278.94
2022-09-12T10:11:15.767Z,101280.19
2022-09-12T10:13:56.822Z,101280.59
2022-09-12T10:16:24.188Z,101283.56
2022-09-12T10:18:53.380Z,101278.84
2022-09-12T10:21:25.410Z,101289.59
2022-09-12T10:23:53.094Z,101290.59
2022-09-12T10:26:19.418Z,101297.28
2022-09-12T10:28:45.706Z,101280.09
2022-09-12T10:31:16.071Z,101278.13
2022-09-12T10:33:47.383Z,101282.81
2022-09-12T10:36:14.262Z,101273.66
2022-09-12T10:38:40.598Z,101279.03
2022-09-12T10:41:07.383Z,101276.72
2022-09-12T10:43:33.634Z,101277.31
2022-09-12T10:46:11.692Z,101284.06
2022-09-12T10:48:38.413Z,101271.66
2022-09-12T10:51:05.023Z,101289.91
2022-09-12T10:53:41.091Z,101278.13
2022-09-12T10:56:26.147Z,101273.16
2022-09-12T10:59:04.980Z,101279.75
2022-09-12T11:01:35.026Z,101268.28
2022-09-12T11:04:16.063Z,101273.72
2022-09-12T11:06:49.075Z,101274.91
2022-09-12T11:09:18.173Z,101273.25
2022-09-12T11:11:57.650Z,101266.31
2022-09-12T11:14:36.633Z,101273.41
2022-09-12T11:17:05.997Z,101264.63
2022-09-12T11:19:51.189Z,101269.75
2022-09-12T11:22:36.891Z,101268.41
2022-09-12T11:25:06.967Z,101264.16
2022-09-12T11:27:35.855Z,101259.09
2022-09-12T11:30:03.714Z,101256.72
2022-09-12T11:32:45.353Z,101268.28
2022-09-12T11:35:30.577Z,101257.81
2022-09-12T11:38:08.834Z,101255.41
2022-09-12T11:40:55.614Z,101251.84
2022-09-12T11:43:41.523Z,101255.56
2022-09-12T11:46:18.679Z,101252.91
2022-09-12T11:48:49.239Z,101247.13
2022-09-12T11:51:17.121Z,101245.09
2022-09-12T11:53:43.434Z,101240.94
2022-09-12T11:56:16.397Z,101245.63
2022-09-12T11:58:42.886Z,101242.19
2022-09-12T12:01:20.992Z,101242.19
2022-09-12T12:03:47.569Z,101238.94
2022-09-12T12:06:20.778Z,101240.44
2022-09-12T12:08:47.330Z,101238.38
2022-09-12T12:11:14.803Z,101238.50
2022-09-12T12:13:44.738Z,101233.63
2022-09-12T12:16:14.523Z,101236.53
2022-09-12T12:18:40.899Z,101232.72
2022-09-12T12:21:19.941Z,101231.25
2022-09-12T12:24:05.205Z,101222.06
2022-09-12T12:26:40.724Z,101227.47
2022-09-12T12:29:27.273Z,101228.19
2022-09-12T12:31:59.298Z,101217.88
2022-09-12T12:34:35.138Z,101219.25
2022-09-12T12:37:19.515Z,101212.66
2022-09-12T12:39:46.142Z,101220.00
2022-09-12T12:42:32.448Z,101217.28
2022-09-12T12:45:03.590Z,101217.69
2022-09-12T12:47:33.080Z,101213.53
2022-09-12T12:50:01.159Z,101219.75
2022-09-12T12:52:28.394Z,101217.03
2022-09-12T12:54:55.552Z,101211.25
2022-09-12T12:57:21.788Z,101211.84
2022-09-12T12:59:49.022Z,101213.47
2022-09-12T13:02:19.183Z,101211.84
2022-09-12T13:04:45.551Z,101214.72
2022-09-12T13:07:13.250Z,101211.16
2022-09-12T13:09:45.970Z,101207.63
2022-09-12T13:12:22.105Z,101200.09
2022-09-12T13:14:48.416Z,101207.22
2022-09-12T13:17:19.835Z,101195.66
2022-09-12T13:19:46.158Z,101197.22
2022-09-12T13:22:12.830Z,101192.34
2022-09-12T13:24:44.427Z,101191.34
2022-09-12T13:27:15.514Z,101192.91
2022-09-12T13:29:42.361Z,101185.94
2022-09-12T13:32:08.722Z,101180.66
2022-09-12T13:34:35.310Z,101188.91
2022-09-12T13:37:07.422Z,101190.09
2022-09-12T13:39:48.116Z,101184.13
2022-09-12T13:42:14.377Z,101181.97
2022-09-12T13:44:44.627Z,101180.28
2022-09-12T13:47:13.622Z,101166.78
2022-09-12T13:49:39.987Z,101167.22
2022-09-12T13:52:07.239Z,101166.59
2022-09-12T13:54:34.021Z,101166.59
2022-09-12T13:57:00.344Z,101166.59
2022-09-12T13:59:26.699Z,101165.34
2022-09-12T14:01:53.093Z,101159.81
2022-09-12T14:04:39.191Z,101158.19
2022-09-12T14:07:13.520Z,101161.38
2022-09-12T14:09:40.911Z,101157.13
2022-09-12T14:12:17.889Z,101156.31
2022-09-12T14:14:46.135Z,101164.25
2022-09-12T14:17:18.945Z,101155.66
2022-09-12T14:19:48.216Z,101154.63
2022-09-12T14:22:18.090Z,101152.28
2022-09-12T14:24:49.559Z,101147.53
2022-09-12T14:27:19.622Z,101151.72
2022-09-12T14:29:46.837Z,101153.09
2022-09-12T14:32:18.577Z,101151.34
2022-09-12T14:35:03.447Z,101148.38
2022-09-12T14:37:29.762Z,101145.06
2022-09-12T14:39:56.771Z,101148.38
2022-09-12T14:42:29.826Z,101135.44
2022-09-12T14:45:00.194Z,101144.28
2022-09-12T14:47:27.568Z,101141.13
2022-09-12T14:49:53.873Z,101141.19
2022-09-12T14:52:22.557Z,101137.53
2022-09-12T14:54:58.742Z,101132.50
2022-09-12T14:57:27.754Z,101129.59
2022-09-12T14:59:54.677Z,101130.19
2022-09-12T15:02:20.914Z,101118.56
2022-09-12T15:04:48.113Z,101126.56
2022-09-12T15:07:34.736Z,101114.84
2022-09-12T15:10:02.237Z,101118.84
2022-09-12T15:12:28.590Z,101122.31
2022-09-12T15:15:01.203Z,101118.16
2022-09-12T15:17:27.640Z,101112.84
2022-09-12T15:19:54.172Z,101113.09
2022-09-12T15:22:21.394Z,101109.13
2022-09-12T15:24:47.761Z,101120.78
2022-09-12T15:27:14.065Z,101117.81
2022-09-12T15:29:40.397Z,101113.25
2022-09-12T15:32:06.788Z,101109.91
2022-09-12T15:34:33.144Z,101109.34
2022-09-12T15:36:59.455Z,101100.44
2022-09-12T15:39:25.779Z,101108.03
2022-09-12T15:41:52.103Z,101105.69
2022-09-12T15:44:20.086Z,101100.84
2022-09-12T15:46:46.648Z,101103.50
2022-09-12T15:49:13.073Z,101097.44
2022-09-12T15:51:39.975Z,101099.53
2022-09-12T15:54:06.369Z,101103.56
2022-09-12T15:56:32.707Z,101097.50
2022-09-12T15:59:00.088Z,101099.19
2022-09-12T16:01:26.747Z,101091.59
2022-09-12T16:03:53.205Z,101100.50
2022-09-12T16:06:19.505Z,101098.13
2022-09-12T16:08:45.876Z,101090.34
2022-09-12T16:11:13.905Z,101090.34
2022-09-12T16:13:40.204Z,101095.88
2022-09-12T16:16:07.582Z,101085.63
2022-09-12T16:18:33.937Z,101086.97
2022-09-12T16:21:00.246Z,101081.19
2022-09-12T16:23:26.577Z,101076.91
2022-09-12T16:25:56.639Z,101079.94
2022-09-12T16:28:22.969Z,101082.53
2022-09-12T16:30:56.410Z,101082.53
2022-09-12T16:33:22.943Z,101072.47
2022-09-12T16:35:51.138Z,101078.84
2022-09-12T16:38:17.838Z,101071.41
2022-09-12T16:40:44.145Z,101061.34
2022-09-12T16:43:10.463Z,101063.41
2022-09-12T16:45:36.782Z,101066.22
2022-09-12T16:48:03.169Z,101060.44
2022-09-12T16:50:30.291Z,101060.44
2022-09-12T16:52:56.612Z,101050.97
2022-09-12T16:55:22.958Z,101054.50
2022-09-12T16:57:49.421Z,101045.84
2022-09-12T17:00:15.751Z,101047.25
2022-09-12T17:02:42.088Z,101051.47
2022-09-12T17:05:08.505Z,101044.88
2022-09-12T17:07:35.154Z,101038.28
2022-09-12T17:10:01.508Z,101044.78
2022-09-12T17:12:27.818Z,101042.66
2022-09-12T17:14:54.360Z,101039.69
2022-09-12T17:17:20.676Z,101041.16
2022-09-12T17:19:47.036Z,101036.13
2022-09-12T17:22:13.341Z,101031.16
2022-09-12T17:24:40.454Z,101029.16
2022-09-12T17:27:06.789Z,101025.38
2022-09-12T17:29:35.005Z,101031.34
2022-09-12T17:32:01.570Z,101027.94
2022-09-12T17:34:27.931Z,101037.72
2022-09-12T17:36:54.271Z,101033.19
2022-09-12T17:39:20.598Z,101030.72
2022-09-12T17:41:47.086Z,101028.22
2022-09-12T17:44:14.142Z,101028.56
2022-09-12T17:46:40.545Z,101031.19
2022-09-12T17:49:07.873Z,101029.34
2022-09-12T17:51:34.207Z,101037.38
2022-09-12T17:54:01.453Z,101043.69
2022-09-12T17:56:29.094Z,101039.41
2022-09-12T17:58:56.337Z,101038.06
2022-09-12T18:01:41.387Z,101034.41
2022-09-12T18:04:07.774Z,101042.50
2022-09-12T18:06:34.094Z,101045.69
2022-09-12T18:09:01.473Z,101044.16
2022-09-12T18:11:27.923Z,101036.81
2022-09-12T18:13:54.355Z,101039.19
2022-09-12T18:16:20.738Z,101035.28
2022-09-12T18:18:47.290Z,101028.00
2022-09-12T18:21:13.626Z,101032.47
2022-09-12T18:23:39.995Z,101026.72
2022-09-12T18:26:07.153Z,101042.19
2022-09-12T18:28:33.882Z,101030.34
2022-09-12T18:31:00.247Z,101028.84
2022-09-12T18:33:26.646Z,101029.50
2022-09-12T18:35:52.963Z,101031.66
2022-09-12T18:38:19.303Z,101034.56
2022-09-12T18:40:45.627Z,101033.78
2022-09-12T18:43:11.955Z,101025.91
2022-09-12T18:45:38.281Z,101020.13
2022-09-12T18:48:06.087Z,101028.09
2022-09-12T18:50:32.701Z,101031.66
2022-09-12T18:52:59.894Z,101015.81
2022-09-12T18:55:26.419Z,101022.41
2022-09-12T18:57:52.756Z,101013.03
2022-09-12T19:00:19.065Z,101006.66
2022-09-12T19:02:45.396Z,101006.66
2022-09-12T19:05:12.770Z,101001.66
2022-09-12T19:07:39.094Z,100995.88
2022-09-12T19:10:15.171Z,101001.66
2022-09-12T19:12:41.727Z,100997.34
2022-09-12T19:15:09.735Z,101004.53
2022-09-12T19:17:36.317Z,101001.56
2022-09-12T19:20:02.638Z,101001.66
2022-09-12T19:22:29.272Z,101000.16
2022-09-12T19:24:55.609Z,100990.09
2022-09-12T19:27:21.933Z,100995.78
2022-09-12T19:29:48.550Z,100987.88
2022-09-12T19:32:14.875Z,100986.41
2022-09-12T19:34:41.745Z,100984.25
2022-09-12T19:37:08.257Z,100984.25
2022-09-12T19:39:34.640Z,100985.63
2022-09-12T19:42:00.991Z,100989.94
2022-09-12T19:44:29.017Z,100984.16
2022-09-12T19:46:55.351Z,100984.16
2022-09-12T19:49:21.682Z,100981.28
2022-09-12T19:51:48.007Z,100984.16
2022-09-12T19:54:14.313Z,100976.91
2022-09-12T19:56:40.650Z,100979.03
2022-09-12T19:59:06.990Z,100974.69
2022-09-12T20:01:34.629Z,100979.72
2022-09-12T20:04:01.007Z,100979.72
2022-09-12T20:06:27.510Z,100970.97
2022-09-12T20:08:53.975Z,100965.94
2022-09-12T20:11:21.778Z,100960.91
2022-09-12T20:13:48.092Z,100963.81
2022-09-12T20:16:20.430Z,100963.81
2022-09-12T20:18:49.372Z,100955.88
2022-09-12T20:21:16.506Z,100963.88
2022-09-12T20:23:42.982Z,100963.88
2022-09-12T20:26:09.298Z,100959.53
2022-09-12T20:28:35.988Z,100950.09
2022-09-12T20:31:03.131Z,100949.38
2022-09-12T20:33:29.557Z,100952.00
2022-09-12T20:36:00.657Z,100953.34
2022-09-12T20:38:26.982Z,100952.59
2022-09-12T20:40:53.292Z,100953.34
2022-09-12T20:43:19.612Z,100956.13
2022-09-12T20:45:45.917Z,100948.97
2022-09-12T20:48:12.242Z,100948.22
2022-09-12T20:50:38.561Z,100943.13
2022-09-12T20:53:05.228Z,100943.13
2022-09-12T20:55:31.541Z,100946.66
2022-09-12T20:57:57.862Z,100950.22
2022-09-12T21:00:24.187Z,100947.41
2022-09-12T21:02:51.065Z,100947.47
2022-09-12T21:05:17.396Z,100944.59
2022-09-12T21:07:43.719Z,100937.28
2022-09-12T21:10:10.409Z,100940.91
2022-09-12T21:12:37.301Z,100941.63
2022-09-12T21:15:03.684Z,100940.16
2022-09-12T21:17:30.008Z,100934.41
2022-09-12T21:19:56.323Z,100936.53
2022-09-12T21:22:22.646Z,100928.78
2022-09-12T21:24:48.970Z,100928.03
2022-09-12T21:27:15.290Z,100935.88
2022-09-12T21:29:41.606Z,100918.41
2022-09-12T21:32:12.138Z,100925.50
2022-09-12T21:34:41.716Z,100921.22
2022-09-12T21:37:08.037Z,100920.63
2022-09-12T21:39:34.343Z,100919.81
2022-09-12T21:42:01.031Z,100914.03
2022-09-12T21:44:27.343Z,100919.81
2022-09-12T21:46:53.747Z,100910.41
2022-09-12T21:49:20.119Z,100908.19
2022-09-12T21:51:46.468Z,100903.16
2022-09-12T21:54:12.781Z,100898.06
2022-09-12T21:56:39.157Z,100892.94
2022-09-12T21:59:05.499Z,100897.97
2022-09-12T22:01:31.875Z,100892.94
2022-09-12T22:03:58.381Z,100892.94
2022-09-12T22:06:24.727Z,100895.75
2022-09-12T22:08:51.081Z,100880.66
2022-09-12T22:11:19.730Z,100883.44
2022-09-12T22:13:46.128Z,100879.16
2022-09-12T22:16:12.606Z,100876.28
2022-09-12T22:18:38.982Z,100867.63
2022-09-12T22:21:06.163Z,100872.00
2022-09-12T22:23:51.275Z,100869.13
2022-09-12T22:26:17.942Z,100872.66
2022-09-12T22:28:44.262Z,100866.78
2022-09-12T22:31:11.481Z,100868.22
2022-09-12T22:33:37.863Z,100868.22
2022-09-12T22:36:04.176Z,100864.59
2022-09-12T22:38:30.919Z,100853.72
2022-09-12T22:40:59.179Z,100849.41
2022-09-12T22:43:25.741Z,100837.88
2022-09-12T22:45:52.253Z,100831.44
2022-09-12T22:48:18.556Z,100829.97
2022-09-12T22:50:45.686Z,100821.31
2022-09-12T22:53:12.080Z,100831.38
2022-09-12T22:55:38.416Z,100824.13
2022-09-12T22:58:04.732Z,100824.88
2022-09-12T23:00:31.096Z,100809.63
2022-09-12T23:02:58.283Z,100813.25
2022-09-12T23:05:24.714Z,100815.41
2022-09-12T23:07:51.014Z,100811.09
2022-09-12T23:10:17.368Z,100815.41
2022-09-12T23:12:43.741Z,100805.31
2022-09-12T23:15:10.225Z,100811.78
2022-09-12T23:17:36.539Z,100805.25
2022-09-12T23:20:03.518Z,100808.91
2022-09-12T23:22:29.821Z,100810.38
2022-09-12T23:24:56.125Z,100811.03
2022-09-12T23:27:23.073Z,100812.50
2022-09-12T23:29:52.379Z,100808.13
2022-09-12T23:32:20.032Z,100804.50
2022-09-12T23:34:47.072Z,100805.16
2022-09-12T23:37:14.021Z,100800.16
2022-09-12T23:39:40.409Z,100793.63
2022-09-12T23:42:06.811Z,100786.41
2022-09-12T23:44:33.146Z,100787.88
2022-09-12T23:46:59.474Z,100784.16
2022-09-12T23:49:25.807Z,100779.91
2022-09-12T23:51:52.147Z,100785.66
2022-09-12T23:54:18.477Z,100788.47
2022-09-12T23:56:44.814Z,100782.78
2022-09-12T23:59:11.179Z,100785.66
